createdAt,value
2022-11-20T00:00:56.341Z,93.76
2022-11-20T00:03:24.592Z,93.19
2022-11-20T00:05:52.308Z,93.88
2022-11-20T00:08:19.966Z,93.96
2022-11-20T00:10:47.715Z,93.45
2022-11-20T00:13:16.711Z,92.60
2022-11-20T00:15:44.463Z,91.59
2022-11-20T00:18:12.226Z,92.54
2022-11-20T00:20:39.914Z,92.13
2022-11-20T00:23:07.940Z,91.86
2022-11-20T00:25:36.533Z,92.31
2022-11-20T00:28:04.362Z,91.98
2022-11-20T00:30:33.730Z,91.31
2022-11-20T00:33:01.491Z,91.07
2022-11-20T00:35:29.242Z,91.07
2022-11-20T00:37:56.938Z,91.32
2022-11-20T00:40:24.662Z,91.52
2022-11-20T00:42:52.369Z,90.48
2022-11-20T00:45:20.120Z,90.34
2022-11-20T00:47:49.422Z,89.62
2022-11-20T00:50:17.115Z,90.07
2022-11-20T00:52:44.930Z,90.48
2022-11-20T00:55:12.628Z,91.00
2022-11-20T00:57:40.349Z,90.46
2022-11-20T01:00:09.143Z,89.93
2022-11-20T01:02:36.911Z,91.28
2022-11-20T01:05:06.259Z,90.92
2022-11-20T01:07:34.283Z,90.83
2022-11-20T01:10:02.049Z,90.86
2022-11-20T01:12:29.739Z,90.96
2022-11-20T01:14:57.459Z,90.97
2022-11-20T01:17:25.220Z,91.64
2022-11-20T01:19:52.876Z,91.45
2022-11-20T01:22:22.234Z,92.31
2022-11-20T01:24:49.954Z,90.67
2022-11-20T01:27:17.839Z,91.20
2022-11-20T01:29:45.642Z,91.40
2022-11-20T01:32:13.368Z,91.11
2022-11-20T01:34:41.087Z,90.75
2022-11-20T01:37:08.784Z,91.51
2022-11-20T01:39:37.868Z,90.47
2022-11-20T01:42:23.295Z,91.53
2022-11-20T01:44:58.288Z,92.31
2022-11-20T01:47:34.054Z,92.79
2022-11-20T01:50:04.960Z,92.35
2022-11-20T01:52:36.603Z,92.87
2022-11-20T01:55:09.419Z,93.32
2022-11-20T01:57:37.760Z,90.96
2022-11-20T02:00:09.599Z,91.02
2022-11-20T02:02:48.700Z,91.65
2022-11-20T02:05:24.660Z,91.28
2022-11-20T02:07:52.860Z,91.13
2022-11-20T02:10:22.744Z,90.76
2022-11-20T02:13:08.191Z,91.62
2022-11-20T02:15:35.834Z,91.83
2022-11-20T02:18:03.887Z,91.59
2022-11-20T02:20:32.091Z,92.08
2022-11-20T02:23:04.073Z,91.78
2022-11-20T02:25:35.771Z,92.87
2022-11-20T02:28:04.851Z,93.31
2022-11-20T02:30:32.600Z,92.13
2022-11-20T02:33:00.459Z,92.35
2022-11-20T02:35:46.386Z,92.72
2022-11-20T02:38:15.691Z,92.75
2022-11-20T02:40:45.301Z,93.35
2022-11-20T02:43:13.257Z,92.92
2022-11-20T02:45:41.112Z,93.71
2022-11-20T02:48:09.619Z,92.89
2022-11-20T02:50:40.384Z,93.60
2022-11-20T02:53:08.744Z,93.05
2022-11-20T02:55:37.181Z,92.34
2022-11-20T02:58:06.424Z,92.61
2022-11-20T03:00:34.598Z,92.75
2022-11-20T03:03:02.461Z,92.18
2022-11-20T03:05:30.203Z,92.13
2022-11-20T03:07:57.951Z,92.45
2022-11-20T03:10:25.774Z,92.78
2022-11-20T03:12:56.293Z,92.15
2022-11-20T03:15:26.333Z,92.93
2022-11-20T03:17:55.891Z,92.21
2022-11-20T03:20:23.932Z,91.89
2022-11-20T03:22:52.009Z,92.49
2022-11-20T03:25:19.852Z,92.66
2022-11-20T03:27:47.598Z,92.90
2022-11-20T03:30:16.101Z,92.31
2022-11-20T03:32:45.329Z,92.56
2022-11-20T03:35:13.182Z,92.54
2022-11-20T03:37:40.934Z,93.19
2022-11-20T03:40:09.721Z,92.60
2022-11-20T03:42:49.683Z,92.88
2022-11-20T03:45:18.947Z,93.07
2022-11-20T03:47:48.262Z,93.59
2022-11-20T03:50:16.293Z,93.08
2022-11-20T03:52:44.498Z,93.28
2022-11-20T03:55:12.330Z,94.09
2022-11-20T03:57:40.073Z,94.46
2022-11-20T04:00:08.887Z,93.54
2022-11-20T04:02:36.816Z,93.21
2022-11-20T04:05:06.569Z,94.13
2022-11-20T04:07:36.515Z,93.93
2022-11-20T04:10:04.980Z,93.72
2022-11-20T04:12:34.525Z,94.12
2022-11-20T04:15:02.396Z,93.88
2022-11-20T04:17:30.157Z,93.61
2022-11-20T04:19:57.886Z,93.84
2022-11-20T04:22:27.462Z,93.93
2022-11-20T04:24:55.251Z,94.28
2022-11-20T04:27:23.133Z,95.18
2022-11-20T04:29:50.898Z,95.14
2022-11-20T04:32:18.715Z,95.43
2022-11-20T04:34:46.618Z,95.07
2022-11-20T04:37:14.393Z,95.04
2022-11-20T04:39:43.607Z,96.04
2022-11-20T04:42:29.464Z,96.08
2022-11-20T04:44:57.692Z,96.07
2022-11-20T04:47:25.632Z,96.49
2022-11-20T04:49:53.535Z,95.72
2022-11-20T04:52:21.509Z,96.29
2022-11-20T04:54:53.705Z,97.18
2022-11-20T04:57:21.773Z,96.37
2022-11-20T04:59:49.556Z,96.73
2022-11-20T05:02:17.425Z,96.69
2022-11-20T05:04:45.238Z,96.50
2022-11-20T05:07:13.114Z,97.04
2022-11-20T05:09:41.008Z,96.37
2022-11-20T05:12:11.081Z,96.94
2022-11-20T05:14:39.065Z,96.66
2022-11-20T05:17:06.958Z,96.55
2022-11-20T05:19:34.747Z,97.09
2022-11-20T05:22:02.532Z,96.98
2022-11-20T05:24:30.280Z,96.32
2022-11-20T05:26:58.026Z,95.63
2022-11-20T05:29:27.218Z,95.46
2022-11-20T05:31:55.031Z,96.34
2022-11-20T05:34:22.814Z,96.07
2022-11-20T05:36:50.660Z,96.11
2022-11-20T05:39:18.622Z,97.37
2022-11-20T05:41:46.470Z,98.22
2022-11-20T05:44:14.467Z,98.28
2022-11-20T05:46:43.662Z,98.04
2022-11-20T05:49:11.637Z,98.32
2022-11-20T05:51:39.710Z,99.74
2022-11-20T05:54:07.441Z,99.32
2022-11-20T05:56:35.203Z,99.14
2022-11-20T05:59:03.104Z,99.85
2022-11-20T06:01:30.893Z,99.15
2022-11-20T06:04:00.094Z,99.46
2022-11-20T06:06:27.960Z,99.77
2022-11-20T06:08:56.627Z,99.26
2022-11-20T06:11:24.567Z,99.30
2022-11-20T06:13:52.767Z,99.21
2022-11-20T06:16:22.693Z,98.35
2022-11-20T06:18:50.446Z,98.30
2022-11-20T06:21:21.509Z,97.92
2022-11-20T06:23:49.891Z,97.66
2022-11-20T06:26:20.395Z,98.19
2022-11-20T06:28:48.764Z,98.06
2022-11-20T06:31:19.023Z,98.26
2022-11-20T06:33:47.310Z,98.16
2022-11-20T06:36:16.888Z,98.75
2022-11-20T06:38:46.641Z,98.43
2022-11-20T06:41:16.479Z,98.22
2022-11-20T06:43:44.773Z,98.23
2022-11-20T06:46:14.447Z,98.31
2022-11-20T06:48:42.585Z,98.15
2022-11-20T06:51:11.163Z,98.73
2022-11-20T06:53:39.266Z,99.08
2022-11-20T06:56:09.812Z,97.90
2022-11-20T06:58:38.748Z,97.78
2022-11-20T07:01:08.313Z,98.38
2022-11-20T07:03:37.565Z,97.09
2022-11-20T07:06:06.310Z,97.84
2022-11-20T07:08:34.846Z,98.33
2022-11-20T07:11:04.372Z,97.78
2022-11-20T07:13:33.939Z,96.98
2022-11-20T07:16:03.159Z,96.72
2022-11-20T07:18:31.103Z,96.41
2022-11-20T07:21:02.943Z,95.89
2022-11-20T07:23:30.742Z,96.41
2022-11-20T07:25:58.693Z,96.69
2022-11-20T07:28:26.497Z,96.52
2022-11-20T07:30:55.776Z,96.66
2022-11-20T07:33:23.574Z,96.62
2022-11-20T07:35:51.458Z,96.64
2022-11-20T07:38:19.261Z,95.73
2022-11-20T07:40:47.023Z,96.32
2022-11-20T07:43:15.037Z,95.46
2022-11-20T07:45:43.902Z,96.02
2022-11-20T07:48:13.058Z,95.88
2022-11-20T07:50:40.935Z,95.79
2022-11-20T07:53:09.055Z,95.81
2022-11-20T07:55:37.090Z,96.15
2022-11-20T07:58:05.450Z,96.33
2022-11-20T08:00:33.499Z,96.01
2022-11-20T08:03:01.324Z,96.57
2022-11-20T08:05:30.570Z,96.20
2022-11-20T08:07:58.404Z,95.13
2022-11-20T08:10:26.300Z,95.27
2022-11-20T08:13:12.517Z,94.66
2022-11-20T08:15:41.782Z,94.94
2022-11-20T08:21:04.476Z,95.39
2022-11-20T08:23:32.387Z,94.78
2022-11-20T08:26:00.140Z,95.15
2022-11-20T08:28:27.950Z,95.31
2022-11-20T08:31:00.997Z,94.74
2022-11-20T08:33:28.896Z,94.25
2022-11-20T08:36:02.216Z,93.95
2022-11-20T08:38:30.566Z,93.50
2022-11-20T08:41:16.713Z,92.80
2022-11-20T08:43:44.572Z,93.65
2022-11-20T08:46:12.372Z,93.25
2022-11-20T08:48:40.160Z,92.90
2022-11-20T08:51:09.430Z,92.66
2022-11-20T08:53:37.169Z,92.64
2022-11-20T08:56:05.204Z,91.65
2022-11-20T08:58:43.834Z,89.14
2022-11-20T09:01:22.080Z,87.62
2022-11-20T09:03:49.969Z,88.47
2022-11-20T09:06:20.040Z,89.21
2022-11-20T09:08:47.768Z,89.78
2022-11-20T09:11:15.755Z,90.42
2022-11-20T09:13:43.526Z,89.24
2022-11-20T09:16:11.564Z,89.38
2022-11-20T09:18:39.725Z,89.60
2022-11-20T09:21:11.660Z,89.34
2022-11-20T09:23:41.272Z,88.73
2022-11-20T09:26:11.777Z,89.61
2022-11-20T09:28:39.859Z,88.85
2022-11-20T09:31:08.100Z,88.50
2022-11-20T09:33:35.879Z,88.16
2022-11-20T09:36:03.674Z,88.18
2022-11-20T09:38:31.490Z,89.69
2022-11-20T09:41:06.078Z,88.76
2022-11-20T09:43:48.288Z,88.35
2022-11-20T09:46:22.917Z,88.57
2022-11-20T09:49:13.953Z,89.63
2022-11-20T09:51:53.400Z,89.64
2022-11-20T09:54:23.516Z,89.42
2022-11-20T09:56:58.526Z,88.76
2022-11-20T09:59:36.242Z,88.64
2022-11-20T10:02:08.757Z,88.36
2022-11-20T10:04:41.596Z,88.27
2022-11-20T10:07:33.462Z,88.69
2022-11-20T10:10:01.840Z,89.55
2022-11-20T10:12:42.608Z,87.98
2022-11-20T10:15:21.780Z,87.93
2022-11-20T10:18:11.538Z,88.31
2022-11-20T10:20:48.528Z,87.81
2022-11-20T10:23:46.932Z,86.83
2022-11-20T10:26:23.628Z,87.52
2022-11-20T10:29:08.521Z,87.45
2022-11-20T10:31:39.586Z,86.18
2022-11-20T10:34:16.885Z,84.92
2022-11-20T10:36:52.594Z,84.90
2022-11-20T10:39:29.087Z,86.37
2022-11-20T10:41:58.113Z,86.13
2022-11-20T10:44:51.277Z,86.52
2022-11-20T10:47:23.123Z,86.07
2022-11-20T10:49:55.076Z,85.63
2022-11-20T10:52:32.417Z,85.77
2022-11-20T10:55:12.726Z,85.66
2022-11-20T10:57:53.229Z,85.70
2022-11-20T11:00:23.398Z,87.02
2022-11-20T11:02:52.694Z,86.65
2022-11-20T11:05:33.915Z,86.19
2022-11-20T11:08:01.842Z,87.57
2022-11-20T11:10:38.381Z,87.73
2022-11-20T11:13:06.241Z,87.51
2022-11-20T11:15:41.539Z,88.34
2022-11-20T11:18:11.980Z,87.63
2022-11-20T11:20:40.224Z,87.98
2022-11-20T11:23:33.795Z,87.84
2022-11-20T11:26:03.772Z,87.83
2022-11-20T11:28:31.758Z,87.97
2022-11-20T11:31:02.151Z,87.38
2022-11-20T11:33:31.862Z,87.66
2022-11-20T11:36:02.773Z,86.95
2022-11-20T11:38:35.276Z,87.43
2022-11-20T11:41:04.439Z,87.84
2022-11-20T11:43:53.090Z,85.51
2022-11-20T11:46:32.581Z,85.75
2022-11-20T11:49:01.961Z,85.65
2022-11-20T11:51:38.309Z,86.62
2022-11-20T11:54:17.664Z,87.19
2022-11-20T11:56:46.685Z,87.65
2022-11-20T11:59:24.567Z,88.36
2022-11-20T12:01:59.329Z,88.03
2022-11-20T12:04:42.351Z,88.10
2022-11-20T12:07:44.361Z,89.07
2022-11-20T12:10:05.122Z,88.94
2022-11-20T12:12:39.229Z,88.90
2022-11-20T12:15:13.820Z,88.94
2022-11-20T12:17:42.925Z,89.70
2022-11-20T12:20:15.072Z,90.15
2022-11-20T12:22:52.543Z,90.49
2022-11-20T12:25:25.086Z,89.90
2022-11-20T12:28:18.102Z,90.23
2022-11-20T12:30:54.334Z,89.53
2022-11-20T12:33:41.211Z,89.82
2022-11-20T12:36:19.988Z,89.32
2022-11-20T12:39:00.471Z,89.36
2022-11-20T12:42:10.484Z,88.95
2022-11-20T12:45:12.969Z,88.47
2022-11-20T12:48:00.400Z,88.21
2022-11-20T12:51:08.121Z,87.68
2022-11-20T12:53:39.924Z,88.43
2022-11-20T12:56:21.103Z,88.15
2022-11-20T12:59:00.068Z,88.77
2022-11-20T13:01:45.084Z,88.13
2022-11-20T13:04:34.034Z,88.57
2022-11-20T13:07:04.869Z,87.45
2022-11-20T13:09:34.696Z,88.47
2022-11-20T13:12:08.527Z,87.87
2022-11-20T13:14:42.994Z,88.12
2022-11-20T13:17:19.225Z,88.77
2022-11-20T13:19:51.904Z,88.74
2022-11-20T13:22:28.535Z,89.08
2022-11-20T13:24:57.241Z,89.57
2022-11-20T13:27:26.116Z,88.49
2022-11-20T13:30:18.232Z,88.33
2022-11-20T13:32:54.923Z,89.16
2022-11-20T13:35:32.072Z,88.82
2022-11-20T13:38:07.776Z,88.15
2022-11-20T13:40:37.625Z,87.84
2022-11-20T13:43:23.364Z,88.61
2022-11-20T13:46:02.192Z,89.09
2022-11-20T13:48:34.185Z,89.66
2022-11-20T13:51:23.588Z,89.68
2022-11-20T13:54:18.911Z,90.66
2022-11-20T13:57:00.533Z,89.97
2022-11-20T13:59:42.347Z,90.96
2022-11-20T14:02:15.118Z,89.95
2022-11-20T14:04:47.052Z,89.74
2022-11-20T14:07:15.104Z,90.19
2022-11-20T14:09:53.204Z,91.03
2022-11-20T14:12:24.810Z,90.52
2022-11-20T14:14:55.390Z,91.83
2022-11-20T14:17:26.315Z,91.27
2022-11-20T14:19:55.873Z,91.56
2022-11-20T14:22:25.074Z,92.38
2022-11-20T14:25:06.748Z,92.77
2022-11-20T14:27:38.302Z,93.30
2022-11-20T14:30:07.212Z,92.79
2022-11-20T14:32:37.399Z,93.84
2022-11-20T14:35:11.499Z,93.39
2022-11-20T14:37:42.208Z,93.12
2022-11-20T14:40:28.443Z,94.04
2022-11-20T14:42:56.810Z,94.31
2022-11-20T14:45:25.596Z,94.10
2022-11-20T14:47:54.191Z,94.63
2022-11-20T14:50:25.377Z,94.11
2022-11-20T14:52:55.005Z,94.71
2022-11-20T14:55:32.820Z,94.24
2022-11-20T14:58:02.536Z,95.49
2022-11-20T15:00:32.022Z,95.69
2022-11-20T15:03:00.098Z,95.76
2022-11-20T15:05:46.591Z,95.93
2022-11-20T15:08:15.552Z,96.49
2022-11-20T15:10:50.477Z,96.02
2022-11-20T15:13:26.707Z,96.20
2022-11-20T15:15:56.918Z,96.69
2022-11-20T15:18:29.031Z,96.98
2022-11-20T15:20:58.063Z,97.79
2022-11-20T15:23:29.594Z,98.37
2022-11-20T15:25:58.789Z,98.59
2022-11-20T15:28:33.360Z,99.25
2022-11-20T15:31:03.180Z,100.00
2022-11-20T15:33:31.638Z,100.00
2022-11-20T15:35:59.443Z,100.00
2022-11-20T15:38:27.508Z,100.00
2022-11-20T15:40:55.279Z,100.00
2022-11-20T15:43:24.444Z,100.00
2022-11-20T15:45:55.179Z,100.00
2022-11-20T15:48:25.331Z,100.00
2022-11-20T15:50:58.666Z,100.00
2022-11-20T15:53:26.521Z,100.00
2022-11-20T15:55:54.261Z,100.00
2022-11-20T15:58:25.268Z,100.00
2022-11-20T16:00:53.042Z,100.00
2022-11-20T16:03:21.616Z,100.00
2022-11-20T16:05:49.368Z,100.00
2022-11-20T16:08:17.182Z,100.00
2022-11-20T16:10:44.991Z,100.00
2022-11-20T16:13:34.425Z,100.00
2022-11-20T16:16:07.152Z,100.00
2022-11-20T16:18:35.485Z,100.00
2022-11-20T16:21:03.308Z,100.00
2022-11-20T16:23:31.064Z,100.00
2022-11-20T16:25:58.846Z,100.00
2022-11-20T16:28:26.639Z,100.00
2022-11-20T16:30:54.369Z,100.00
2022-11-20T16:33:23.531Z,100.00
2022-11-20T16:35:51.643Z,100.00
2022-11-20T16:38:19.853Z,100.00
2022-11-20T16:40:47.602Z,100.00
2022-11-20T16:43:16.071Z,100.00
2022-11-20T16:45:45.344Z,100.00
2022-11-20T16:48:17.814Z,100.00
2022-11-20T16:50:52.391Z,100.00
2022-11-20T16:53:21.263Z,100.00
2022-11-20T16:55:49.766Z,100.00
2022-11-20T16:58:17.729Z,100.00
2022-11-20T17:00:51.456Z,100.00
2022-11-20T17:03:20.886Z,100.00
2022-11-20T17:05:50.518Z,100.00
2022-11-20T17:08:18.353Z,100.00
2022-11-20T17:10:46.107Z,100.00
2022-11-20T17:13:13.828Z,100.00
2022-11-20T17:15:42.041Z,100.00
2022-11-20T17:18:09.929Z,100.00
2022-11-20T17:20:37.699Z,100.00
2022-11-20T17:23:06.818Z,100.00
2022-11-20T17:25:35.242Z,100.00
2022-11-20T17:28:02.996Z,100.00
2022-11-20T17:30:31.434Z,100.00
2022-11-20T17:32:59.259Z,100.00
2022-11-20T17:35:27.086Z,100.00
2022-11-20T17:37:55.041Z,100.00
2022-11-20T17:40:27.348Z,100.00
2022-11-20T17:42:56.062Z,100.00
2022-11-20T17:45:23.888Z,100.00
2022-11-20T17:47:51.656Z,100.00
2022-11-20T17:50:19.963Z,100.00
2022-11-20T17:52:48.046Z,100.00
2022-11-20T17:55:16.026Z,100.00
2022-11-20T17:58:02.188Z,100.00
2022-11-20T18:00:31.609Z,100.00
2022-11-20T18:02:59.391Z,100.00
2022-11-20T18:05:27.739Z,100.00
2022-11-20T18:07:55.576Z,100.00
2022-11-20T18:10:23.404Z,100.00
2022-11-20T18:12:53.871Z,100.00
2022-11-20T18:15:21.771Z,100.00
2022-11-20T18:17:49.642Z,100.00
2022-11-20T18:20:29.424Z,100.00
2022-11-20T18:22:58.497Z,100.00
2022-11-20T18:25:26.272Z,100.00
2022-11-20T18:27:56.340Z,100.00
2022-11-20T18:30:24.324Z,100.00
2022-11-20T18:32:52.269Z,100.00
2022-11-20T18:35:19.979Z,100.00
2022-11-20T18:37:47.942Z,100.00
2022-11-20T18:40:15.776Z,100.00
2022-11-20T18:43:01.183Z,100.00
2022-11-20T18:45:30.376Z,100.00
2022-11-20T18:47:59.233Z,100.00
2022-11-20T18:50:27.011Z,100.00
2022-11-20T18:52:54.944Z,100.00
2022-11-20T18:55:25.060Z,100.00
2022-11-20T18:57:53.939Z,100.00
2022-11-20T19:00:21.899Z,100.00
2022-11-20T19:02:54.096Z,100.00
2022-11-20T19:05:21.912Z,100.00
2022-11-20T19:07:49.716Z,100.00
2022-11-20T19:10:20.172Z,100.00
2022-11-20T19:12:48.015Z,100.00
2022-11-20T19:15:15.862Z,100.00
2022-11-20T19:17:43.645Z,100.00
2022-11-20T19:20:13.499Z,100.00
2022-11-20T19:22:41.426Z,100.00
2022-11-20T19:25:10.154Z,100.00
2022-11-20T19:27:38.329Z,100.00
2022-11-20T19:30:07.131Z,100.00
2022-11-20T19:32:35.296Z,100.00
2022-11-20T19:35:03.651Z,100.00
2022-11-20T19:37:35.249Z,100.00
2022-11-20T19:40:04.570Z,100.00
2022-11-20T19:42:32.961Z,100.00
2022-11-20T19:45:00.803Z,100.00
2022-11-20T19:47:52.632Z,100.00
2022-11-20T19:50:16.982Z,100.00
2022-11-20T19:52:46.406Z,100.00
2022-11-20T19:55:14.421Z,100.00
2022-11-20T19:57:42.504Z,100.00
2022-11-20T20:00:12.229Z,100.00
2022-11-20T20:02:40.045Z,100.00
2022-11-20T20:05:08.651Z,100.00
2022-11-20T20:07:36.580Z,100.00
2022-11-20T20:10:06.706Z,100.00
2022-11-20T20:12:34.698Z,100.00
2022-11-20T20:15:02.461Z,100.00
2022-11-20T20:17:30.317Z,100.00
2022-11-20T20:19:58.099Z,100.00
2022-11-20T20:22:25.936Z,100.00
2022-11-20T20:24:53.711Z,100.00
2022-11-20T20:27:22.911Z,100.00
2022-11-20T20:29:50.671Z,100.00
2022-11-20T20:32:18.451Z,100.00
2022-11-20T20:34:46.308Z,100.00
2022-11-20T20:37:14.434Z,100.00
2022-11-20T20:39:42.349Z,100.00
2022-11-20T20:42:10.534Z,100.00
2022-11-20T20:44:57.275Z,100.00
2022-11-20T20:47:25.071Z,100.00
2022-11-20T20:49:52.927Z,100.00
2022-11-20T20:52:21.196Z,100.00
2022-11-20T20:54:48.948Z,100.00
2022-11-20T20:57:17.136Z,100.00
2022-11-20T20:59:46.682Z,100.00
2022-11-20T21:02:14.483Z,100.00
2022-11-20T21:04:42.414Z,100.00
2022-11-20T21:07:10.829Z,100.00
2022-11-20T21:09:38.865Z,100.00
2022-11-20T21:12:07.090Z,100.00
2022-11-20T21:14:35.600Z,100.00
2022-11-20T21:17:04.833Z,99.97
2022-11-20T21:19:33.346Z,100.00
2022-11-20T21:22:00.163Z,100.00
2022-11-20T21:24:28.696Z,100.00
2022-11-20T21:26:57.922Z,100.00
2022-11-20T21:29:27.194Z,100.00
2022-11-20T21:31:55.900Z,100.00
2022-11-20T21:34:26.183Z,100.00
2022-11-20T21:36:54.200Z,100.00
2022-11-20T21:39:22.850Z,100.00
2022-11-20T21:41:50.827Z,100.00
2022-11-20T21:44:34.346Z,100.00
2022-11-20T21:47:02.752Z,100.00
2022-11-20T21:49:32.078Z,100.00
2022-11-20T21:52:00.297Z,100.00
2022-11-20T21:54:28.071Z,100.00
2022-11-20T21:56:55.979Z,100.00
2022-11-20T21:59:24.403Z,100.00
2022-11-20T22:01:52.337Z,100.00
2022-11-20T22:04:21.806Z,100.00
2022-11-20T22:06:51.140Z,100.00
2022-11-20T22:09:19.002Z,100.00
2022-11-20T22:11:46.773Z,100.00
2022-11-20T22:14:24.490Z,100.00
2022-11-20T22:16:55.029Z,100.00
2022-11-20T22:19:24.314Z,100.00
2022-11-20T22:21:53.436Z,100.00
2022-11-20T22:24:23.302Z,100.00
2022-11-20T22:26:51.869Z,100.00
2022-11-20T22:29:21.950Z,100.00
2022-11-20T22:31:53.078Z,100.00
2022-11-20T22:34:21.452Z,100.00
2022-11-20T22:36:49.504Z,100.00
2022-11-20T22:39:18.839Z,100.00
2022-11-20T22:41:46.593Z,100.00
2022-11-20T22:44:16.319Z,100.00
2022-11-20T22:46:44.608Z,100.00
2022-11-20T22:49:12.399Z,100.00
2022-11-20T22:51:41.758Z,100.00
2022-11-20T22:54:12.416Z,100.00
2022-11-20T22:56:42.164Z,100.00
2022-11-20T22:59:10.326Z,100.00
2022-11-20T23:01:39.136Z,100.00
2022-11-20T23:04:10.671Z,100.00
2022-11-20T23:06:38.734Z,100.00
2022-11-20T23:09:07.476Z,100.00
2022-11-20T23:11:36.133Z,100.00
2022-11-20T23:14:07.365Z,100.00
2022-11-20T23:16:35.907Z,100.00
2022-11-20T23:19:07.210Z,100.00
2022-11-20T23:21:36.666Z,100.00
2022-11-20T23:24:05.235Z,100.00
2022-11-20T23:26:35.474Z,100.00
2022-11-20T23:29:05.254Z,100.00
2022-11-20T23:31:34.874Z,100.00
2022-11-20T23:34:02.883Z,100.00
2022-11-20T23:36:30.777Z,100.00
2022-11-20T23:38:58.609Z,100.00
2022-11-20T23:41:27.030Z,100.00
2022-11-20T23:43:54.955Z,100.00
2022-11-20T23:46:24.130Z,100.00
2022-11-20T23:48:51.914Z,100.00
2022-11-20T23:51:19.903Z,100.00
2022-11-20T23:53:47.673Z,100.00
2022-11-20T23:56:15.696Z,100.00
2022-11-20T23:58:43.831Z,100.00
